Terminal Aerodrome Forecast
Issued by NWS Wilmington, OH

Current Version | Previous Version | Text Only | Print | Product List | Glossary Off
Versions: 1 2 3 4 5 6 7 8 9 10 11 12 13 14 15 16

000
FTUS41 KILN 221100
TAFDAY
TAF
KDAY 221133Z 2212/2312 29012KT 5SM BR BKN015 OVC050
      TEMPO 2212/2213 5SM BR BKN009
     FM221400 31016KT P6SM SCT020
     FM221600 31017G25KT P6SM FEW035
     FM230000 33011KT P6SM SKC=

USA.gov is the U.S. government's official web portal to all federal, state and local government web resources and services.